Time;durP1;ratioP1;P1;durP2;ratioP2;P2;SDS_P1;SDS_P2;PMS_P1;PMS_P2;Temp;Humidity;BMP_temperature;BMP_pressure;BME280_temperature;BME280_humidity;BME280_pressure;Samples;Min_cycle;Max_cycle;Signal;HPM_P1;HPM_P2
2022/06/13 00:00:48;;;;;;;4.97;3.75;;;23.60;65.90;;;;;;1895942;76;21096;-65
2022/06/13 00:03:18;;;;;;;10.95;4.20;;;23.50;65.70;;;;;;1895998;76;21094;-65
2022/06/13 00:05:48;;;;;;;9.48;4.65;;;23.50;66.20;;;;;;1895841;76;21051;-65
2022/06/13 00:08:17;;;;;;;5.28;3.77;;;23.50;66.10;;;;;;1895842;76;21015;-65
2022/06/13 00:10:46;;;;;;;5.90;3.98;;;23.40;66.40;;;;;;1896022;76;21039;-65
2022/06/13 00:13:16;;;;;;;7.17;3.70;;;23.40;66.60;;;;;;1895920;76;21057;-65
2022/06/13 00:15:45;;;;;;;7.00;3.87;;;23.40;66.90;;;;;;1895881;76;21109;-65
2022/06/13 00:18:15;;;;;;;6.62;3.75;;;23.40;66.80;;;;;;1895941;76;21015;-65
2022/06/13 00:20:44;;;;;;;11.25;4.22;;;23.30;66.90;;;;;;1895929;76;21054;-65
2022/06/13 00:23:14;;;;;;;8.20;4.20;;;23.20;66.60;;;;;;1895858;76;21015;-65
2022/06/13 00:25:43;;;;;;;7.35;3.98;;;23.10;66.70;;;;;;1895949;76;21538;-65
2022/06/13 00:28:12;;;;;;;6.62;4.42;;;23.00;66.90;;;;;;1895854;76;21465;-65
2022/06/13 00:30:41;;;;;;;3.83;3.47;;;23.00;67.10;;;;;;1895864;75;21106;-65
2022/06/13 00:33:11;;;;;;;4.55;3.95;;;22.90;67.00;;;;;;1895967;76;21104;-65
2022/06/13 00:35:40;;;;;;;5.58;4.90;;;22.90;67.20;;;;;;1896060;76;21418;-65
2022/06/13 00:38:10;;;;;;;4.28;3.87;;;22.90;67.60;;;;;;1895945;76;21039;-65
2022/06/13 00:40:39;;;;;;;10.65;4.78;;;22.90;67.90;;;;;;1896206;76;21137;-65
2022/06/13 00:43:10;;;;;;;7.33;4.40;;;22.90;67.80;;;;;;1896287;76;21100;-65
2022/06/13 00:45:39;;;;;;;9.15;4.47;;;22.90;67.90;;;;;;1896110;75;21140;-65
2022/06/13 00:48:11;;;;;;;11.18;4.92;;;22.80;67.60;;;;;;1896047;76;21121;-65
2022/06/13 00:50:49;;;;;;;5.35;4.42;;;22.70;67.60;;;;;;1895403;76;21469;-65
2022/06/13 00:53:24;;;;;;;5.90;3.90;;;22.60;68.10;;;;;;1896064;76;21023;-65
2022/06/13 00:55:59;;;;;;;7.92;4.33;;;22.40;68.60;;;;;;1895989;76;21030;-65
2022/06/13 00:58:31;;;;;;;9.38;4.17;;;22.30;69.20;;;;;;1896089;76;21098;-65
2022/06/13 01:01:01;;;;;;;6.90;4.50;;;22.30;69.50;;;;;;1895987;76;21097;-65
2022/06/13 01:03:32;;;;;;;6.50;4.33;;;22.30;69.50;;;;;;1895978;76;21037;-65
2022/06/13 01:06:03;;;;;;;7.95;4.78;;;22.40;69.50;;;;;;1895921;76;21042;-65
2022/06/13 01:08:35;;;;;;;7.05;4.15;;;22.40;69.50;;;;;;1895954;75;21152;-65
2022/06/13 01:11:19;;;;;;;6.40;3.98;;;22.40;70.30;;;;;;1896074;76;21434;-66
2022/06/13 01:14:14;;;;;;;6.35;4.33;;;22.40;70.00;;;;;;1896131;76;21082;-65
2022/06/13 01:16:49;;;;;;;6.47;4.30;;;22.40;70.00;;;;;;1894614;75;21121;-65
2022/06/13 01:19:31;;;;;;;;;;;22.50;69.90;;;;;;1884653;75;21595;-65
2022/06/13 01:22:33;;;;;;;5.53;4.28;;;22.50;69.50;;;;;;1895957;76;20092;-65
2022/06/13 01:25:39;;;;;;;6.72;4.12;;;22.50;69.30;;;;;;1867542;76;21047;-65
2022/06/13 01:28:14;;;;;;;6.20;4.15;;;22.50;69.20;;;;;;1896125;76;21133;-65
2022/06/13 01:31:08;;;;;;;8.05;4.10;;;22.50;69.30;;;;;;1874268;75;21116;-65
2022/06/13 01:33:49;;;;;;;7.62;4.95;;;22.50;69.40;;;;;;1896063;76;21022;-65
2022/06/13 01:36:41;;;;;;;6.33;4.83;;;22.50;69.60;;;;;;1896093;75;21531;-65
2022/06/13 01:39:30;;;;;;;6.12;4.42;;;22.40;69.50;;;;;;1931460;74;21029;-65
2022/06/13 01:42:19;;;;;;;8.20;4.87;;;22.40;69.80;;;;;;1932344;74;21052;-65
2022/06/13 01:44:57;;;;;;;11.33;4.58;;;22.40;69.90;;;;;;1932401;74;21075;-65
2022/06/13 01:47:47;;;;;;;7.55;4.12;;;22.40;69.80;;;;;;1930760;73;21509;-65
2022/06/13 01:50:22;;;;;;;13.58;4.92;;;22.40;69.90;;;;;;1898771;74;21048;-65
2022/06/13 01:53:06;;;;;;;7.85;4.85;;;22.40;69.90;;;;;;1899778;75;21024;-65
2022/06/13 01:55:46;;;;;;;5.72;4.65;;;22.40;69.90;;;;;;1899855;75;21003;-65
2022/06/13 01:58:31;;;;;;;10.85;4.87;;;22.40;70.00;;;;;;1899839;75;21008;-65
2022/06/13 02:01:09;;;;;;;7.37;5.03;;;22.30;70.10;;;;;;1899105;75;21548;-65
2022/06/13 02:03:43;;;;;;;8.33;5.15;;;22.30;70.10;;;;;;1899766;75;21471;-65
2022/06/13 02:06:16;;;;;;;;;;;22.20;70.20;;;;;;1902429;75;21474;-65
2022/06/13 02:08:57;;;;;;;8.73;5.17;;;22.20;70.00;;;;;;1899624;75;20101;-65
2022/06/13 02:11:38;;;;;;;13.80;5.33;;;22.10;70.20;;;;;;1899365;75;20988;-65
2022/06/13 02:14:26;;;;;;;8.48;5.05;;;22.00;70.60;;;;;;1899734;75;21075;-65
2022/06/13 02:17:04;;;;;;;9.38;5.15;;;22.00;70.70;;;;;;1899694;75;21087;-65
2022/06/13 02:19:42;;;;;;;9.90;5.55;;;22.00;70.80;;;;;;1899708;75;21028;-65
2022/06/13 02:22:17;;;;;;;7.97;5.53;;;22.00;70.80;;;;;;1899691;75;21074;-65
2022/06/13 02:24:49;;;;;;;10.23;6.00;;;22.00;71.10;;;;;;1899476;74;21459;-65
2022/06/13 02:27:22;;;;;;;7.40;5.58;;;22.00;71.10;;;;;;1898949;75;21102;-65
2022/06/13 02:29:54;;;;;;;7.72;5.62;;;22.00;70.90;;;;;;1899747;75;21467;-65
2022/06/13 02:32:26;;;;;;;8.38;4.95;;;22.00;71.20;;;;;;1899508;75;21004;-65
2022/06/13 02:34:58;;;;;;;9.83;5.10;;;22.00;71.40;;;;;;1899784;75;20985;-65
2022/06/13 02:37:42;;;;;;;9.90;5.25;;;22.00;71.60;;;;;;1899479;75;21009;-65
2022/06/13 02:40:17;;;;;;;6.55;5.45;;;22.10;71.50;;;;;;1899740;75;20980;-65
2022/06/13 02:42:52;;;;;;;10.80;4.83;;;22.20;71.50;;;;;;1898934;73;20997;-65
2022/06/13 02:45:26;;;;;;;10.03;5.42;;;22.20;71.60;;;;;;1899952;75;21497;-65
2022/06/13 02:48:01;;;;;;;12.28;6.65;;;22.30;71.80;;;;;;1899225;75;21004;-65
2022/06/13 02:50:56;;;;;;;14.28;7.05;;;22.40;71.60;;;;;;1895470;74;21082;-65
2022/06/13 02:53:28;;;;;;;6.83;5.95;;;22.40;71.30;;;;;;1897322;76;21030;-65
2022/06/13 02:56:12;;;;;;;7.37;6.20;;;22.50;71.10;;;;;;1897087;76;21501;-65
2022/06/13 02:58:44;;;;;;;11.18;5.85;;;22.40;71.00;;;;;;1897030;76;21551;-65
2022/06/13 03:01:15;;;;;;;9.50;6.00;;;22.50;71.30;;;;;;1896392;74;21040;-65
2022/06/13 03:03:53;;;;;;;10.98;5.62;;;22.50;71.30;;;;;;1896984;75;21116;-65
2022/06/13 03:06:35;;;;;;;10.53;4.83;;;22.60;71.30;;;;;;1896947;73;21051;-65
2022/06/13 03:09:12;;;;;;;12.13;6.30;;;22.70;71.30;;;;;;1895857;74;21109;-65
2022/06/13 03:12:04;;;;;;;12.98;5.87;;;22.70;70.80;;;;;;1897155;76;21039;-65
2022/06/13 03:14:45;;;;;;;10.32;5.83;;;22.70;70.30;;;;;;1897071;75;21494;-66
2022/06/13 03:17:23;;;;;;;14.60;6.58;;;22.70;70.40;;;;;;1897142;76;21011;-67
2022/06/13 03:19:58;;;;;;;17.52;6.20;;;22.70;70.60;;;;;;1897111;76;21027;-67
2022/06/13 03:22:47;;;;;;;10.75;5.62;;;22.70;70.60;;;;;;1896925;74;21543;-67
2022/06/13 03:25:25;;;;;;;9.18;4.92;;;22.80;70.60;;;;;;1897096;76;21023;-66
2022/06/13 03:28:01;;;;;;;9.43;5.87;;;22.70;70.40;;;;;;1897077;76;21047;-67
2022/06/13 03:30:33;;;;;;;11.55;5.58;;;22.80;70.60;;;;;;1897058;76;21031;-67
2022/06/13 03:35:56;;;;;;;11.85;6.08;;;22.80;70.30;;;;;;1897240;76;21046;-67
2022/06/13 03:38:28;;;;;;;8.33;5.45;;;22.90;70.20;;;;;;1897113;76;21125;-67
2022/06/13 03:41:00;;;;;;;11.43;6.00;;;23.00;70.30;;;;;;1896544;72;21011;-67
2022/06/13 03:43:50;;;;;;;7.70;4.87;;;23.20;70.30;;;;;;1897143;76;21204;-67
2022/06/13 03:46:31;;;;;;;10.05;5.50;;;23.30;69.90;;;;;;1897011;76;21089;-67
2022/06/13 03:49:06;;;;;;;10.18;5.47;;;23.50;69.60;;;;;;1895805;75;21826;-67
2022/06/13 03:51:35;;;;;;;;;;;23.70;69.30;;;;;;1891722;75;21029;-66
2022/06/13 03:54:09;;;;;;;9.95;5.12;;;23.80;69.20;;;;;;1889322;76;20112;-66
2022/06/13 03:56:42;;;;;;;7.03;5.58;;;24.00;68.80;;;;;;1876379;76;21054;-66
2022/06/13 03:59:13;;;;;;;11.20;5.70;;;24.20;68.50;;;;;;1888825;75;21030;-66
2022/06/13 04:01:51;;;;;;;11.12;5.22;;;24.30;67.80;;;;;;1888742;76;21050;-66
2022/06/13 04:04:27;;;;;;;8.48;4.90;;;24.40;67.20;;;;;;1889324;75;21054;-66
2022/06/13 04:06:56;;;;;;;11.93;4.90;;;24.40;67.20;;;;;;1889243;76;21135;-66
2022/06/13 04:09:35;;;;;;;16.62;5.92;;;24.40;66.60;;;;;;1889224;75;21046;-66
2022/06/13 04:12:23;;;;;;;18.05;7.72;;;24.40;66.40;;;;;;1889204;76;21030;-66
2022/06/13 04:15:04;;;;;;;6.62;4.45;;;24.40;66.20;;;;;;1889407;76;21533;-66
2022/06/13 04:17:39;;;;;;;6.85;5.37;;;24.30;66.30;;;;;;1824346;79;21052;-66
2022/06/13 04:20:19;;;;;;;18.48;6.90;;;24.30;66.30;;;;;;1824457;79;21172;-66
2022/06/13 04:23:00;;;;;;;11.53;5.22;;;24.40;66.50;;;;;;1784655;78;21020;-66
2022/06/13 04:25:47;;;;;;;8.65;5.25;;;24.60;66.00;;;;;;1823840;78;21067;-66
2022/06/13 04:28:28;;;;;;;10.80;4.90;;;24.80;65.20;;;;;;1824259;79;21204;-66
2022/06/13 04:31:00;;;;;;;8.85;5.17;;;24.90;64.60;;;;;;1824104;78;21040;-66
2022/06/13 04:33:32;;;;;;;10.35;4.70;;;24.90;64.20;;;;;;1824330;78;21032;-66
2022/06/13 04:36:03;;;;;;;11.20;4.85;;;24.90;63.80;;;;;;1824243;78;21450;-66
2022/06/13 04:38:33;;;;;;;8.03;4.25;;;24.80;63.60;;;;;;1824342;78;21552;-66
2022/06/13 04:41:05;;;;;;;7.20;4.37;;;24.80;63.90;;;;;;1824334;79;21052;-66
2022/06/13 04:43:37;;;;;;;9.80;4.15;;;24.80;63.30;;;;;;1824266;79;21118;-66
2022/06/13 04:46:09;;;;;;;9.20;4.42;;;24.70;62.90;;;;;;1824314;78;21486;-66
2022/06/13 04:48:43;;;;;;;8.45;4.58;;;24.70;62.70;;;;;;1824310;79;21455;-66
2022/06/13 04:51:15;;;;;;;11.55;4.58;;;24.60;62.10;;;;;;1824557;79;21118;-66
2022/06/13 04:53:47;;;;;;;7.30;4.33;;;24.50;61.90;;;;;;1823999;78;21091;-66
2022/06/13 04:56:17;;;;;;;8.58;4.37;;;24.50;62.00;;;;;;1824254;78;21064;-66
2022/06/13 04:58:46;;;;;;;6.25;4.78;;;24.50;61.60;;;;;;1824346;79;21040;-66
2022/06/13 05:01:33;;;;;;;8.40;4.42;;;24.40;61.60;;;;;;1824374;79;21083;-66
2022/06/13 05:04:05;;;;;;;10.85;4.60;;;24.40;61.80;;;;;;1824454;79;21059;-66
2022/06/13 05:06:40;;;;;;;11.57;5.10;;;24.40;62.00;;;;;;1824273;79;21117;-66
2022/06/13 05:09:17;;;;;;;9.05;5.45;;;24.40;61.80;;;;;;1823511;78;21071;-65
2022/06/13 05:12:05;;;;;;;11.83;5.22;;;24.30;61.60;;;;;;1824281;79;21067;-65
2022/06/13 05:14:37;;;;;;;10.43;5.35;;;24.20;61.70;;;;;;1824349;79;21071;-66
2022/06/13 05:17:16;;;;;;;7.67;4.80;;;24.20;62.10;;;;;;1843898;76;21526;-66
2022/06/13 05:20:02;;;;;;;10.32;5.08;;;24.30;62.10;;;;;;1878041;76;21131;-66
2022/06/13 05:22:53;;;;;;;13.78;5.60;;;24.30;62.10;;;;;;1877634;76;21511;-66
2022/06/13 05:25:33;;;;;;;11.25;4.70;;;24.40;61.90;;;;;;1877857;76;21013;-66
2022/06/13 05:28:03;;;;;;;12.43;7.42;;;24.50;62.20;;;;;;1877815;76;21405;-66
2022/06/13 05:30:32;;;;;;;8.50;5.37;;;24.60;62.10;;;;;;1877962;76;21087;-65
2022/06/13 05:33:02;;;;;;;12.63;4.22;;;24.60;61.80;;;;;;1877921;76;21092;-66
2022/06/13 05:35:35;;;;;;;19.07;4.62;;;24.60;61.90;;;;;;1878026;76;21025;-66
2022/06/13 05:38:05;;;;;;;7.03;4.12;;;24.70;61.60;;;;;;1877924;76;21088;-66
2022/06/13 05:40:34;;;;;;;6.22;3.65;;;24.70;61.40;;;;;;1878017;76;21084;-66
2022/06/13 05:45:53;;;;;;;9.25;4.00;;;24.80;61.20;;;;;;1874359;76;21033;-66
2022/06/13 05:48:24;;;;;;;12.05;6.12;;;24.90;61.10;;;;;;1874356;76;21010;-66
2022/06/13 05:50:54;;;;;;;7.08;3.90;;;25.00;60.80;;;;;;1874464;76;21026;-66
2022/06/13 05:53:25;;;;;;;8.03;3.08;;;25.10;60.30;;;;;;1874381;76;21025;-66
2022/06/13 05:55:57;;;;;;;7.60;2.65;;;25.20;59.40;;;;;;1874543;76;21033;-66
2022/06/13 05:58:27;;;;;;;10.90;3.33;;;25.30;59.30;;;;;;1874470;76;21002;-66
2022/06/13 06:00:58;;;;;;;10.65;3.60;;;25.30;58.30;;;;;;1874401;76;21025;-66
2022/06/13 06:03:28;;;;;;;10.40;3.30;;;25.30;58.10;;;;;;1874337;76;21115;-66
2022/06/13 06:05:58;;;;;;;8.33;2.92;;;25.40;58.00;;;;;;1874289;76;21044;-66
2022/06/13 06:08:30;;;;;;;11.48;2.65;;;25.40;57.70;;;;;;1874322;76;21033;-66
2022/06/13 06:11:00;;;;;;;7.03;3.02;;;25.50;57.80;;;;;;1874298;76;21034;-65
2022/06/13 06:13:30;;;;;;;6.67;3.55;;;25.50;57.70;;;;;;1874417;76;21017;-66
2022/06/13 06:16:01;;;;;;;10.53;2.58;;;25.60;57.20;;;;;;1874374;76;21025;-66
2022/06/13 06:18:31;;;;;;;6.75;2.83;;;25.50;56.80;;;;;;1874368;76;21033;-66
2022/06/13 06:21:01;;;;;;;10.80;2.92;;;25.50;56.60;;;;;;1874386;76;21033;-66
2022/06/13 06:23:30;;;;;;;7.53;2.52;;;25.50;56.20;;;;;;1874614;76;21030;-66
2022/06/13 06:25:59;;;;;;;8.28;2.83;;;25.50;55.90;;;;;;1874353;76;21099;-65
2022/06/13 06:28:29;;;;;;;13.05;4.45;;;25.60;56.00;;;;;;1874415;76;21099;-66
2022/06/13 06:30:59;;;;;;;13.25;2.42;;;25.70;55.30;;;;;;1874411;76;21111;-65
2022/06/13 06:33:29;;;;;;;6.33;2.37;;;25.70;54.50;;;;;;1874308;76;21174;-65
2022/06/13 06:35:58;;;;;;;13.18;2.62;;;25.80;53.50;;;;;;1874232;76;21029;-65
2022/06/13 06:38:29;;;;;;;18.57;3.45;;;25.90;52.40;;;;;;1874406;76;21096;-66
2022/06/13 06:40:58;;;;;;;6.25;2.08;;;26.00;52.30;;;;;;1874284;76;21103;-66
2022/06/13 06:43:28;;;;;;;4.78;2.40;;;26.10;52.00;;;;;;1874328;76;21064;-66
2022/06/13 06:45:58;;;;;;;10.05;2.77;;;26.30;51.90;;;;;;1883132;74;21077;-66
2022/06/13 06:48:28;;;;;;;12.95;4.67;;;26.40;52.30;;;;;;1885254;75;21081;-66
2022/06/13 06:50:57;;;;;;;8.38;2.45;;;26.60;52.40;;;;;;1885282;76;21135;-66
2022/06/13 06:59:53;;;;;;;5.45;2.37;;;26.70;51.70;;;;;;1885424;76;21064;-66
2022/06/13 07:01:33;;;;;;;5.15;2.27;;;26.80;50.70;;;;;;1885413;75;21049;-66
2022/06/13 07:04:02;;;;;;;6.55;2.00;;;26.80;51.00;;;;;;1885447;75;21099;-65
2022/06/13 07:06:31;;;;;;;7.10;2.67;;;26.80;50.70;;;;;;1885357;76;21027;-66
2022/06/13 07:09:00;;;;;;;3.92;2.33;;;26.80;51.60;;;;;;1885399;75;21037;-66
2022/06/13 07:14:17;;;;;;;8.55;2.35;;;27.00;51.70;;;;;;1885559;75;21108;-66
2022/06/13 07:16:46;;;;;;;8.53;2.42;;;27.10;51.30;;;;;;1885409;75;21034;-66
2022/06/13 07:19:16;;;;;;;6.83;2.50;;;27.30;51.40;;;;;;1885523;76;21211;-66
2022/06/13 07:21:46;;;;;;;6.47;3.12;;;27.40;51.30;;;;;;1885361;76;21033;-66
2022/06/13 07:24:15;;;;;;;10.65;4.67;;;27.40;50.00;;;;;;1885459;76;21010;-66
2022/06/13 07:26:44;;;;;;;6.55;3.77;;;27.50;50.00;;;;;;1885342;75;21096;-66
2022/06/13 07:29:16;;;;;;;5.25;2.40;;;27.50;49.60;;;;;;1885277;76;21030;-66
2022/06/13 07:31:47;;;;;;;7.62;2.30;;;27.40;49.20;;;;;;1885409;76;21026;-66
2022/06/13 07:34:19;;;;;;;6.80;2.20;;;27.40;49.00;;;;;;1885562;75;21005;-66
2022/06/13 07:36:50;;;;;;;7.03;2.30;;;27.40;49.40;;;;;;1885321;76;21033;-66
2022/06/13 07:39:19;;;;;;;6.95;2.70;;;27.50;49.50;;;;;;1885423;76;21029;-66
2022/06/13 07:41:49;;;;;;;10.03;2.42;;;27.60;48.60;;;;;;1885300;75;21037;-66
2022/06/13 07:44:21;;;;;;;5.80;2.75;;;27.70;48.10;;;;;;1885359;76;21038;-66
2022/06/13 07:46:51;;;;;;;7.60;2.33;;;27.90;47.40;;;;;;1855512;75;21058;-66
2022/06/13 07:49:21;;;;;;;8.60;2.52;;;28.00;47.00;;;;;;1853054;77;21429;-66
2022/06/13 07:51:50;;;;;;;6.87;2.20;;;28.10;46.70;;;;;;1853029;77;21129;-66
2022/06/13 07:54:21;;;;;;;28.92;3.85;;;28.10;45.30;;;;;;1853104;77;21033;-66
2022/06/13 07:56:51;;;;;;;3.60;1.80;;;28.30;44.40;;;;;;1853161;77;21107;-66
2022/06/13 07:59:22;;;;;;;4.42;2.02;;;28.40;43.10;;;;;;1852991;76;21030;-66
2022/06/13 08:01:52;;;;;;;5.37;1.80;;;28.50;42.10;;;;;;1852981;77;21050;-66
2022/06/13 08:04:21;;;;;;;4.70;1.57;;;28.60;41.50;;;;;;1853064;76;21034;-66
2022/06/13 08:06:50;;;;;;;9.03;2.50;;;28.70;40.40;;;;;;1853110;77;21014;-66
2022/06/13 08:09:20;;;;;;;4.28;1.40;;;28.80;39.40;;;;;;1853090;77;21125;-66
2022/06/13 08:11:51;;;;;;;5.55;1.40;;;28.90;37.40;;;;;;1853082;77;21073;-66
2022/06/13 08:14:20;;;;;;;3.65;1.17;;;29.00;35.90;;;;;;1853095;77;21042;-66
2022/06/13 08:16:50;;;;;;;4.97;1.45;;;29.00;34.70;;;;;;1852984;77;21039;-66
2022/06/13 08:19:19;;;;;;;4.22;1.42;;;29.10;35.60;;;;;;1853149;77;21058;-66
2022/06/13 08:21:51;;;;;;;2.70;1.35;;;29.10;34.90;;;;;;1853214;77;21132;-66
2022/06/13 08:24:20;;;;;;;2.83;1.57;;;29.20;35.50;;;;;;1853153;76;21062;-66
2022/06/13 08:26:49;;;;;;;5.87;1.85;;;29.30;34.80;;;;;;1853072;76;21010;-67
2022/06/13 08:32:09;;;;;;;12.25;4.70;;;29.30;34.70;;;;;;1865767;77;21118;-67
2022/06/13 08:34:38;;;;;;;2.83;1.70;;;29.40;35.60;;;;;;1865821;76;21036;-66
2022/06/13 08:37:07;;;;;;;6.90;2.42;;;29.40;35.60;;;;;;1865671;77;21533;-67
2022/06/13 08:39:36;;;;;;;3.85;1.75;;;29.40;35.50;;;;;;1865872;77;21032;-67
2022/06/13 08:42:18;;;;;;;8.85;2.52;;;29.30;34.70;;;;;;1865764;77;21102;-66
2022/06/13 08:44:50;;;;;;;17.62;4.17;;;29.30;35.30;;;;;;1865448;77;21545;-67
2022/06/13 08:47:34;;;;;;;8.15;2.40;;;29.30;36.20;;;;;;1865318;75;21055;-67
2022/06/13 08:50:21;;;;;;;7.47;2.27;;;29.40;35.70;;;;;;1865936;77;21036;-66
2022/06/13 08:52:55;;;;;;;3.75;1.70;;;29.40;36.00;;;;;;1865756;77;21048;-66
2022/06/13 08:55:30;;;;;;;6.75;2.00;;;29.40;36.00;;;;;;1865791;77;21028;-66
2022/06/13 08:58:05;;;;;;;6.33;1.90;;;29.50;36.50;;;;;;1865784;77;21045;-66
2022/06/13 09:00:35;;;;;;;3.50;1.45;;;29.60;36.50;;;;;;1865691;74;21118;-67
2022/06/13 09:03:11;;;;;;;4.42;2.00;;;29.70;36.60;;;;;;1865831;77;21036;-67
2022/06/13 09:05:59;;;;;;;4.87;1.37;;;29.70;36.90;;;;;;1864398;75;21028;-67
2022/06/13 09:08:57;;;;;;;5.17;2.30;;;29.80;36.90;;;;;;1865832;77;21052;-67
2022/06/13 09:11:35;;;;;;;5.12;2.08;;;29.90;37.20;;;;;;1865947;77;21098;-67
2022/06/13 09:14:18;;;;;;;8.45;4.45;;;30.00;35.50;;;;;;1865957;77;21471;-67
2022/06/13 09:16:50;;;;;;;2.72;2.27;;;30.20;35.70;;;;;;1865688;77;21439;-67
2022/06/13 09:19:25;;;;;;;7.15;2.10;;;30.30;35.80;;;;;;1865739;76;21562;-67
2022/06/13 09:22:03;;;;;;;7.50;3.55;;;30.40;35.30;;;;;;1865927;77;21068;-66
2022/06/13 09:24:38;;;;;;;6.90;2.90;;;30.50;35.30;;;;;;1865716;77;21041;-67
2022/06/13 09:27:13;;;;;;;16.67;4.15;;;30.50;36.20;;;;;;1865646;76;21028;-67
2022/06/13 09:29:45;;;;;;;4.47;1.90;;;30.60;35.80;;;;;;1864780;77;21099;-67
2022/06/13 09:32:34;;;;;;;7.20;1.70;;;30.60;35.80;;;;;;1871242;76;21132;-67
2022/06/13 09:35:18;;;;;;;4.12;1.90;;;30.70;35.70;;;;;;1870957;76;21128;-67
2022/06/13 09:37:54;;;;;;;10.83;3.03;;;30.60;35.90;;;;;;1872240;77;21493;-67
2022/06/13 09:40:43;;;;;;;4.80;2.02;;;30.60;36.60;;;;;;1872044;77;21033;-67
2022/06/13 09:43:33;;;;;;;7.33;2.08;;;30.70;37.10;;;;;;1871566;75;21524;-67
2022/06/13 09:46:13;;;;;;;9.13;1.98;;;30.70;36.30;;;;;;1871974;77;21088;-67
2022/06/13 09:49:12;;;;;;;14.50;2.33;;;30.80;36.40;;;;;;1871912;77;21132;-67
2022/06/13 09:51:44;;;;;;;5.83;2.40;;;30.80;36.80;;;;;;1871452;75;21403;-67
2022/06/13 09:54:19;;;;;;;3.70;1.92;;;31.00;37.10;;;;;;1855578;75;21093;-67
2022/06/13 09:57:03;;;;;;;6.47;2.20;;;31.00;36.60;;;;;;1871753;76;21073;-67
2022/06/13 09:59:52;;;;;;;4.65;1.98;;;31.10;35.90;;;;;;1872088;76;21539;-67
2022/06/13 10:02:29;;;;;;;3.60;1.70;;;31.10;35.10;;;;;;1871908;77;21058;-67
2022/06/13 10:05:10;;;;;;;7.15;1.70;;;31.10;35.20;;;;;;1871865;76;21559;-67
2022/06/13 10:07:41;;;;;;;8.03;2.00;;;31.10;35.20;;;;;;1870632;76;21112;-67
2022/06/13 10:10:13;;;;;;;2.50;1.75;;;31.20;35.60;;;;;;1864582;76;21050;-67
2022/06/13 10:12:48;;;;;;;4.20;1.62;;;31.30;35.40;;;;;;1869864;75;21214;-67
2022/06/13 10:15:29;;;;;;;4.97;1.92;;;31.40;34.80;;;;;;1871273;76;21503;-67
2022/06/13 10:18:22;;;;;;;10.63;1.95;;;31.40;34.40;;;;;;1871687;75;21496;-67
2022/06/13 10:20:54;;;;;;;3.98;1.90;;;31.50;34.50;;;;;;1870741;75;21088;-67
2022/06/13 10:23:42;;;;;;;2.10;1.50;;;31.60;33.40;;;;;;1871900;77;21016;-67
2022/06/13 10:26:50;;;;;;;3.30;1.82;;;31.70;33.20;;;;;;1872050;77;21129;-67
2022/06/13 10:29:25;;;;;;;5.40;1.85;;;31.70;32.60;;;;;;1871890;77;21061;-67
2022/06/13 10:32:09;;;;;;;4.53;1.85;;;31.70;32.70;;;;;;1870279;75;21089;-67
2022/06/13 10:34:53;;;;;;;11.20;2.87;;;31.60;33.00;;;;;;1871586;76;21041;-66
2022/06/13 10:37:25;;;;;;;4.70;1.80;;;31.60;32.80;;;;;;1870389;76;21131;-66
2022/06/13 10:39:57;;;;;;;4.95;1.45;;;31.50;32.00;;;;;;1871802;77;21050;-66
2022/06/13 10:42:29;;;;;;;4.85;1.65;;;31.50;32.60;;;;;;1871952;76;21493;-66
2022/06/13 10:44:58;;;;;;;4.15;1.62;;;31.50;32.50;;;;;;1871960;77;21476;-66
2022/06/13 10:47:46;;;;;;;2.83;1.42;;;31.60;32.40;;;;;;1871793;77;21042;-66
2022/06/13 10:50:35;;;;;;;5.37;1.87;;;31.60;32.20;;;;;;1871775;77;21045;-66
2022/06/13 10:53:11;;;;;;;2.20;1.65;;;31.70;32.60;;;;;;1870886;76;21038;-66
2022/06/13 10:55:43;;;;;;;4.95;1.98;;;31.60;32.90;;;;;;1871100;76;21042;-66
2022/06/13 10:58:21;;;;;;;2.58;2.00;;;31.70;33.20;;;;;;1871985;77;21112;-66
2022/06/13 11:01:11;;;;;;;8.30;1.82;;;31.70;33.20;;;;;;1870507;76;21049;-66
2022/06/13 11:04:01;;;;;;;2.72;2.08;;;31.80;33.10;;;;;;1871917;77;21069;-66
2022/06/13 11:06:36;;;;;;;6.70;2.00;;;31.70;33.30;;;;;;1871799;77;21041;-66
2022/06/13 11:09:08;;;;;;;2.92;1.80;;;31.80;33.80;;;;;;1829484;77;21108;-66
2022/06/13 11:11:40;;;;;;;5.85;1.87;;;31.90;34.00;;;;;;1871766;77;21037;-66
2022/06/13 11:14:12;;;;;;;5.37;2.30;;;31.90;34.00;;;;;;1871961;77;21010;-66
2022/06/13 11:22:39;;;;;;;3.50;1.82;;;32.10;35.20;;;;;;1871949;77;21029;-66
2022/06/13 11:25:23;;;;;;;3.90;2.05;;;32.20;34.60;;;;;;1871870;77;21054;-66
2022/06/13 11:28:07;;;;;;;3.72;1.90;;;32.10;34.80;;;;;;1871886;77;21062;-66
2022/06/13 11:30:53;;;;;;;4.55;2.00;;;32.20;34.60;;;;;;1871982;77;21078;-66
2022/06/13 11:33:32;;;;;;;5.25;2.05;;;32.20;34.50;;;;;;1856589;75;21354;-67
2022/06/13 11:36:05;;;;;;;5.33;2.30;;;32.20;34.60;;;;;;1856563;77;21016;-67
2022/06/13 11:38:55;;;;;;;6.95;2.22;;;32.20;35.00;;;;;;1839965;77;21052;-66
2022/06/13 11:41:45;;;;;;;6.72;2.25;;;32.30;34.60;;;;;;1853624;77;21058;-67
2022/06/13 11:44:20;;;;;;;4.70;2.37;;;32.30;34.80;;;;;;1853553;77;21526;-67
2022/06/13 11:46:55;;;;;;;3.22;2.00;;;32.30;35.00;;;;;;1853401;77;21091;-67
2022/06/13 11:49:39;;;;;;;7.00;2.25;;;32.30;34.80;;;;;;1853549;77;21033;-67
2022/06/13 11:53:35;;;;;;;5.35;2.30;;;32.40;35.00;;;;;;1853069;76;21049;-68
2022/06/13 11:54:58;;;;;;;3.05;1.67;;;32.40;35.00;;;;;;1849936;77;21045;-68
2022/06/13 11:57:36;;;;;;;8.58;1.70;;;32.40;35.10;;;;;;1853114;76;21057;-68
2022/06/13 12:00:12;;;;;;;3.35;2.00;;;32.40;35.10;;;;;;1853620;77;21002;-68
2022/06/13 12:02:44;;;;;;;7.35;2.62;;;32.40;35.00;;;;;;1852375;76;21045;-68
2022/06/13 12:05:20;;;;;;;9.70;2.17;;;32.40;34.80;;;;;;1852491;75;21054;-68
2022/06/13 12:07:51;;;;;;;5.20;2.70;;;32.40;34.60;;;;;;1853476;77;21031;-68
2022/06/13 12:10:25;;;;;;;4.37;2.22;;;32.30;34.50;;;;;;1853478;77;21460;-68
2022/06/13 12:12:54;;;;;;;9.38;2.02;;;32.40;35.10;;;;;;1853741;77;21111;-68
2022/06/13 12:15:25;;;;;;;10.30;2.35;;;32.40;35.40;;;;;;1853489;77;21539;-67
2022/06/13 12:18:00;;;;;;;5.00;2.17;;;32.40;34.50;;;;;;1853208;76;21471;-68
2022/06/13 12:20:32;;;;;;;3.37;2.10;;;32.40;34.60;;;;;;1853459;77;21033;-68
2022/06/13 12:23:13;;;;;;;6.97;2.37;;;32.40;34.30;;;;;;1835505;75;21108;-67
2022/06/13 12:25:51;;;;;;;3.92;2.20;;;32.40;34.60;;;;;;1853459;77;21119;-68
2022/06/13 12:28:22;;;;;;;2.58;1.87;;;32.40;34.80;;;;;;1853521;77;21026;-68
2022/06/13 12:31:00;;;;;;;7.17;2.17;;;32.50;34.80;;;;;;1853430;77;21037;-67
2022/06/13 12:33:56;;;;;;;5.37;2.42;;;32.50;34.30;;;;;;1853534;77;21061;-67
2022/06/13 12:36:40;;;;;;;6.10;2.10;;;32.50;34.60;;;;;;1853070;75;21441;-67
2022/06/13 12:39:21;;;;;;;4.65;2.25;;;32.50;34.70;;;;;;1853704;77;21087;-68
2022/06/13 12:42:10;;;;;;;4.53;2.27;;;32.60;35.00;;;;;;1853468;76;21049;-66
2022/06/13 12:44:51;;;;;;;2.42;1.98;;;32.60;35.20;;;;;;1853640;77;21120;-66
2022/06/13 12:47:44;;;;;;;4.95;2.17;;;32.60;35.20;;;;;;1850135;77;21025;-66
2022/06/13 12:50:17;;;;;;;2.67;1.87;;;32.60;34.90;;;;;;1853240;77;21112;-67
2022/06/13 12:53:06;;;;;;;4.95;2.25;;;32.60;34.70;;;;;;1853793;77;21550;-66
2022/06/13 12:55:42;;;;;;;9.68;2.55;;;32.60;34.40;;;;;;1853711;77;21009;-66
2022/06/13 12:58:36;;;;;;;3.92;2.05;;;32.50;34.40;;;;;;1837205;77;21186;-66
2022/06/13 13:01:08;;;;;;;4.70;1.90;;;32.40;34.90;;;;;;1836894;77;21108;-68
2022/06/13 13:04:00;;;;;;;5.22;1.70;;;32.40;34.60;;;;;;1798020;80;21127;-68
2022/06/13 13:06:32;;;;;;;3.77;2.40;;;32.40;34.20;;;;;;1798015;80;21593;-68
2022/06/13 13:09:23;;;;;;;5.80;2.00;;;32.30;34.60;;;;;;1798123;79;21130;-68
2022/06/13 13:12:02;;;;;;;5.85;2.00;;;32.30;34.60;;;;;;1797969;79;21044;-68
2022/06/13 13:14:52;;;;;;;6.17;2.92;;;32.30;34.70;;;;;;1798087;80;21072;-68
2022/06/13 13:17:39;;;;;;;5.40;2.20;;;32.30;34.60;;;;;;1767740;81;21052;-68
2022/06/13 13:20:11;;;;;;;3.80;2.10;;;32.30;34.60;;;;;;1767238;80;21072;-68
2022/06/13 13:22:58;;;;;;;4.20;1.98;;;32.30;34.50;;;;;;1837345;77;21443;-68
2022/06/13 13:25:33;;;;;;;4.80;2.05;;;32.20;34.20;;;;;;1798162;80;21055;-69
2022/06/13 13:28:07;;;;;;;10.65;2.02;;;32.20;35.20;;;;;;1767689;81;21052;-69
2022/06/13 13:30:45;;;;;;;4.58;2.08;;;32.20;34.50;;;;;;1768232;81;21094;-69
2022/06/13 13:33:29;;;;;;;6.17;1.95;;;32.20;34.50;;;;;;1806483;78;21032;-69
2022/06/13 13:36:07;;;;;;;6.17;2.00;;;32.20;34.50;;;;;;1805697;78;21028;-69
2022/06/13 13:38:42;;;;;;;5.12;2.15;;;32.10;34.80;;;;;;1806124;78;21130;-68
2022/06/13 13:41:18;;;;;;;5.15;2.20;;;32.10;34.90;;;;;;1805597;78;21107;-69
2022/06/13 13:44:08;;;;;;;3.45;2.27;;;32.00;34.90;;;;;;1806447;78;21043;-68
2022/06/13 13:46:43;;;;;;;1.92;1.72;;;32.00;34.80;;;;;;1805616;78;21145;-69
2022/06/13 13:49:24;;;;;;;5.40;2.45;;;31.90;34.30;;;;;;1791951;79;21510;-69
2022/06/13 13:52:05;;;;;;;3.30;2.35;;;31.90;34.80;;;;;;1806738;79;21114;-69
2022/06/13 13:54:37;;;;;;;4.72;2.00;;;31.90;34.70;;;;;;1806466;78;21526;-69